sensor_id;sensor_type;location;lat;lon;timestamp;temperature;humidity
18444;DHT22;9350;53.176;8.194;2023-01-25T00:00:00;2.00;99.90
18444;DHT22;9350;53.176;8.194;2023-01-25T00:02:26;1.90;99.90
18444;DHT22;9350;53.176;8.194;2023-01-25T00:04:53;1.90;99.90
18444;DHT22;9350;53.176;8.194;2023-01-25T00:07:20;1.90;99.90
18444;DHT22;9350;53.176;8.194;2023-01-25T00:09:47;1.90;99.90
18444;DHT22;9350;53.176;8.194;2023-01-25T00:12:15;1.80;99.90
18444;DHT22;9350;53.176;8.194;2023-01-25T00:14:42;1.90;99.90
18444;DHT22;9350;53.176;8.194;2023-01-25T00:17:08;1.90;99.90
18444;DHT22;9350;53.176;8.194;2023-01-25T00:19:35;1.90;99.90
18444;DHT22;9350;53.176;8.194;2023-01-25T00:22:02;1.90;99.90
18444;DHT22;9350;53.176;8.194;2023-01-25T00:24:29;1.90;99.90
18444;DHT22;9350;53.176;8.194;2023-01-25T00:26:55;1.80;99.90
18444;DHT22;9350;53.176;8.194;2023-01-25T00:29:23;1.80;99.90
18444;DHT22;9350;53.176;8.194;2023-01-25T00:31:57;1.90;99.90
18444;DHT22;9350;53.176;8.194;2023-01-25T00:34:43;1.90;99.90
18444;DHT22;9350;53.176;8.194;2023-01-25T00:37:18;1.90;99.90
18444;DHT22;9350;53.176;8.194;2023-01-25T00:39:46;2.00;99.90
18444;DHT22;9350;53.176;8.194;2023-01-25T00:42:14;1.90;99.90
18444;DHT22;9350;53.176;8.194;2023-01-25T00:44:42;1.90;99.90
18444;DHT22;9350;53.176;8.194;2023-01-25T00:47:09;1.90;99.90
18444;DHT22;9350;53.176;8.194;2023-01-25T00:49:37;2.60;99.90
18444;DHT22;9350;53.176;8.194;2023-01-25T00:52:05;1.90;99.90
18444;DHT22;9350;53.176;8.194;2023-01-25T00:54:32;1.90;99.90
18444;DHT22;9350;53.176;8.194;2023-01-25T00:56:59;2.00;99.90
18444;DHT22;9350;53.176;8.194;2023-01-25T00:59:26;2.00;99.90
18444;DHT22;9350;53.176;8.194;2023-01-25T01:01:54;2.00;99.90
18444;DHT22;9350;53.176;8.194;2023-01-25T01:04:21;1.80;99.90
18444;DHT22;9350;53.176;8.194;2023-01-25T01:06:50;1.90;99.90
18444;DHT22;9350;53.176;8.194;2023-01-25T01:09:18;1.80;99.90
18444;DHT22;9350;53.176;8.194;2023-01-25T01:11:45;1.90;99.90
18444;DHT22;9350;53.176;8.194;2023-01-25T01:14:12;1.80;99.90
18444;DHT22;9350;53.176;8.194;2023-01-25T01:16:39;1.80;99.90
18444;DHT22;9350;53.176;8.194;2023-01-25T01:19:07;1.80;99.90
18444;DHT22;9350;53.176;8.194;2023-01-25T01:21:34;1.70;99.90
18444;DHT22;9350;53.176;8.194;2023-01-25T01:24:01;1.80;99.90
18444;DHT22;9350;53.176;8.194;2023-01-25T01:26:28;1.80;99.90
18444;DHT22;9350;53.176;8.194;2023-01-25T01:28:54;1.80;99.90
18444;DHT22;9350;53.176;8.194;2023-01-25T01:31:22;1.80;99.90
18444;DHT22;9350;53.176;8.194;2023-01-25T01:33:50;1.80;99.90
18444;DHT22;9350;53.176;8.194;2023-01-25T01:36:20;1.70;99.90
18444;DHT22;9350;53.176;8.194;2023-01-25T01:38:47;1.70;99.90
18444;DHT22;9350;53.176;8.194;2023-01-25T01:41:15;1.70;99.90
18444;DHT22;9350;53.176;8.194;2023-01-25T01:43:42;1.80;99.90
18444;DHT22;9350;53.176;8.194;2023-01-25T01:46:13;1.80;99.90
18444;DHT22;9350;53.176;8.194;2023-01-25T01:48:42;1.80;99.90
18444;DHT22;9350;53.176;8.194;2023-01-25T01:51:16;1.80;99.90
18444;DHT22;9350;53.176;8.194;2023-01-25T01:53:48;1.80;99.90
18444;DHT22;9350;53.176;8.194;2023-01-25T01:56:20;1.80;99.90
18444;DHT22;9350;53.176;8.194;2023-01-25T01:58:50;1.80;99.90
18444;DHT22;9350;53.176;8.194;2023-01-25T02:01:18;1.80;99.90
18444;DHT22;9350;53.176;8.194;2023-01-25T02:03:46;1.80;99.90
18444;DHT22;9350;53.176;8.194;2023-01-25T02:06:18;1.90;99.90
18444;DHT22;9350;53.176;8.194;2023-01-25T02:08:48;1.90;99.90
18444;DHT22;9350;53.176;8.194;2023-01-25T02:11:15;1.80;99.90
18444;DHT22;9350;53.176;8.194;2023-01-25T02:13:42;1.80;99.90
18444;DHT22;9350;53.176;8.194;2023-01-25T02:16:13;1.80;99.90
18444;DHT22;9350;53.176;8.194;2023-01-25T02:18:40;1.90;99.90
18444;DHT22;9350;53.176;8.194;2023-01-25T02:21:07;1.80;99.90
18444;DHT22;9350;53.176;8.194;2023-01-25T02:23:41;1.70;99.90
18444;DHT22;9350;53.176;8.194;2023-01-25T02:26:15;1.70;99.90
18444;DHT22;9350;53.176;8.194;2023-01-25T02:28:47;1.70;99.90
18444;DHT22;9350;53.176;8.194;2023-01-25T02:31:15;1.70;99.90
18444;DHT22;9350;53.176;8.194;2023-01-25T02:33:42;1.80;99.90
18444;DHT22;9350;53.176;8.194;2023-01-25T02:36:19;1.80;99.90
18444;DHT22;9350;53.176;8.194;2023-01-25T02:38:50;1.80;99.90
18444;DHT22;9350;53.176;8.194;2023-01-25T02:41:26;1.80;99.90
18444;DHT22;9350;53.176;8.194;2023-01-25T02:43:55;1.70;99.90
18444;DHT22;9350;53.176;8.194;2023-01-25T02:46:24;1.70;99.90
18444;DHT22;9350;53.176;8.194;2023-01-25T02:48:52;1.70;99.90
18444;DHT22;9350;53.176;8.194;2023-01-25T02:51:20;1.70;99.90
18444;DHT22;9350;53.176;8.194;2023-01-25T02:53:47;1.80;99.90
18444;DHT22;9350;53.176;8.194;2023-01-25T02:56:15;1.70;99.90
18444;DHT22;9350;53.176;8.194;2023-01-25T02:58:43;1.80;99.90
18444;DHT22;9350;53.176;8.194;2023-01-25T03:01:11;1.70;99.90
18444;DHT22;9350;53.176;8.194;2023-01-25T03:03:38;1.80;99.90
18444;DHT22;9350;53.176;8.194;2023-01-25T03:06:06;1.80;99.90
18444;DHT22;9350;53.176;8.194;2023-01-25T03:08:33;1.80;99.90
18444;DHT22;9350;53.176;8.194;2023-01-25T03:11:01;1.70;99.90
18444;DHT22;9350;53.176;8.194;2023-01-25T03:13:29;1.70;99.90
18444;DHT22;9350;53.176;8.194;2023-01-25T03:16:00;1.80;99.90
18444;DHT22;9350;53.176;8.194;2023-01-25T03:18:27;1.90;99.90
18444;DHT22;9350;53.176;8.194;2023-01-25T03:20:53;1.80;99.90
18444;DHT22;9350;53.176;8.194;2023-01-25T03:23:21;1.80;99.90
18444;DHT22;9350;53.176;8.194;2023-01-25T03:25:47;1.70;99.90
18444;DHT22;9350;53.176;8.194;2023-01-25T03:28:14;1.80;99.90
18444;DHT22;9350;53.176;8.194;2023-01-25T03:30:41;1.80;99.90
18444;DHT22;9350;53.176;8.194;2023-01-25T03:33:09;1.80;99.90
18444;DHT22;9350;53.176;8.194;2023-01-25T03:35:36;1.80;99.90
18444;DHT22;9350;53.176;8.194;2023-01-25T03:38:03;1.70;99.90
18444;DHT22;9350;53.176;8.194;2023-01-25T03:40:29;1.70;99.90
18444;DHT22;9350;53.176;8.194;2023-01-25T03:42:56;1.70;99.90
18444;DHT22;9350;53.176;8.194;2023-01-25T03:45:23;1.60;99.90
18444;DHT22;9350;53.176;8.194;2023-01-25T03:47:50;1.70;99.90
18444;DHT22;9350;53.176;8.194;2023-01-25T03:50:18;1.60;99.90
18444;DHT22;9350;53.176;8.194;2023-01-25T03:52:56;1.70;99.90
18444;DHT22;9350;53.176;8.194;2023-01-25T03:55:31;1.70;99.90
18444;DHT22;9350;53.176;8.194;2023-01-25T03:57:58;1.70;99.90
18444;DHT22;9350;53.176;8.194;2023-01-25T04:00:25;1.60;99.90
18444;DHT22;9350;53.176;8.194;2023-01-25T04:02:52;1.60;99.90
18444;DHT22;9350;53.176;8.194;2023-01-25T04:05:20;1.70;99.90
18444;DHT22;9350;53.176;8.194;2023-01-25T04:07:46;1.70;99.90
18444;DHT22;9350;53.176;8.194;2023-01-25T04:10:14;1.70;99.90
18444;DHT22;9350;53.176;8.194;2023-01-25T04:12:41;1.70;99.90
18444;DHT22;9350;53.176;8.194;2023-01-25T04:15:09;1.70;99.90
18444;DHT22;9350;53.176;8.194;2023-01-25T04:17:35;1.70;99.90
18444;DHT22;9350;53.176;8.194;2023-01-25T04:20:03;1.70;99.90
18444;DHT22;9350;53.176;8.194;2023-01-25T04:22:31;1.70;99.90
18444;DHT22;9350;53.176;8.194;2023-01-25T04:24:58;1.60;99.90
18444;DHT22;9350;53.176;8.194;2023-01-25T04:27:24;1.60;99.90
18444;DHT22;9350;53.176;8.194;2023-01-25T04:29:51;1.60;99.90
18444;DHT22;9350;53.176;8.194;2023-01-25T04:32:18;1.60;99.90
18444;DHT22;9350;53.176;8.194;2023-01-25T04:34:44;1.60;99.90
18444;DHT22;9350;53.176;8.194;2023-01-25T04:37:11;1.60;99.90
18444;DHT22;9350;53.176;8.194;2023-01-25T04:39:39;1.50;99.90
18444;DHT22;9350;53.176;8.194;2023-01-25T04:42:06;1.50;99.90
18444;DHT22;9350;53.176;8.194;2023-01-25T04:44:33;1.50;99.90
18444;DHT22;9350;53.176;8.194;2023-01-25T04:47:00;1.60;99.90
18444;DHT22;9350;53.176;8.194;2023-01-25T04:49:28;1.50;99.90
18444;DHT22;9350;53.176;8.194;2023-01-25T04:51:54;1.60;99.90
18444;DHT22;9350;53.176;8.194;2023-01-25T04:54:21;1.50;99.90
18444;DHT22;9350;53.176;8.194;2023-01-25T04:56:49;1.60;99.90
18444;DHT22;9350;53.176;8.194;2023-01-25T04:59:16;1.60;99.90
18444;DHT22;9350;53.176;8.194;2023-01-25T05:01:43;1.60;99.90
18444;DHT22;9350;53.176;8.194;2023-01-25T05:04:10;1.60;99.90
18444;DHT22;9350;53.176;8.194;2023-01-25T05:06:37;1.60;99.90
18444;DHT22;9350;53.176;8.194;2023-01-25T05:09:03;1.60;99.90
18444;DHT22;9350;53.176;8.194;2023-01-25T05:11:30;1.60;99.90
18444;DHT22;9350;53.176;8.194;2023-01-25T05:13:58;1.50;99.90
18444;DHT22;9350;53.176;8.194;2023-01-25T05:16:25;1.60;99.90
18444;DHT22;9350;53.176;8.194;2023-01-25T05:18:53;1.60;99.90
18444;DHT22;9350;53.176;8.194;2023-01-25T05:21:22;1.50;99.90
18444;DHT22;9350;53.176;8.194;2023-01-25T05:24:07;1.50;99.90
18444;DHT22;9350;53.176;8.194;2023-01-25T05:26:34;1.50;99.90
18444;DHT22;9350;53.176;8.194;2023-01-25T05:29:20;1.60;99.90
18444;DHT22;9350;53.176;8.194;2023-01-25T05:31:47;1.30;99.90
18444;DHT22;9350;53.176;8.194;2023-01-25T05:34:14;1.30;99.90
18444;DHT22;9350;53.176;8.194;2023-01-25T05:36:41;1.30;99.90
18444;DHT22;9350;53.176;8.194;2023-01-25T05:39:08;1.40;99.90
18444;DHT22;9350;53.176;8.194;2023-01-25T05:41:34;1.40;99.90
18444;DHT22;9350;53.176;8.194;2023-01-25T05:44:01;1.40;99.90
18444;DHT22;9350;53.176;8.194;2023-01-25T05:46:30;1.40;99.90
18444;DHT22;9350;53.176;8.194;2023-01-25T05:48:57;1.40;99.90
18444;DHT22;9350;53.176;8.194;2023-01-25T05:51:23;2.50;99.90
18444;DHT22;9350;53.176;8.194;2023-01-25T05:53:53;1.50;99.90
18444;DHT22;9350;53.176;8.194;2023-01-25T05:56:20;1.50;99.90
18444;DHT22;9350;53.176;8.194;2023-01-25T05:58:51;1.40;99.90
18444;DHT22;9350;53.176;8.194;2023-01-25T06:01:17;1.40;99.90
18444;DHT22;9350;53.176;8.194;2023-01-25T06:03:46;1.60;99.90
18444;DHT22;9350;53.176;8.194;2023-01-25T06:06:13;1.40;99.90
18444;DHT22;9350;53.176;8.194;2023-01-25T06:08:40;1.50;99.90
18444;DHT22;9350;53.176;8.194;2023-01-25T06:11:07;1.40;99.90
18444;DHT22;9350;53.176;8.194;2023-01-25T06:13:34;1.40;99.90
18444;DHT22;9350;53.176;8.194;2023-01-25T06:16:01;1.40;99.90
18444;DHT22;9350;53.176;8.194;2023-01-25T06:18:29;1.50;99.90
18444;DHT22;9350;53.176;8.194;2023-01-25T06:20:58;1.50;99.90
18444;DHT22;9350;53.176;8.194;2023-01-25T06:23:25;1.40;99.90
18444;DHT22;9350;53.176;8.194;2023-01-25T06:25:56;1.50;99.90
18444;DHT22;9350;53.176;8.194;2023-01-25T06:28:23;1.50;99.90
18444;DHT22;9350;53.176;8.194;2023-01-25T06:30:50;1.50;99.90
18444;DHT22;9350;53.176;8.194;2023-01-25T06:33:17;1.60;99.90
18444;DHT22;9350;53.176;8.194;2023-01-25T06:35:44;1.50;99.90
18444;DHT22;9350;53.176;8.194;2023-01-25T06:38:12;1.40;99.90
18444;DHT22;9350;53.176;8.194;2023-01-25T06:40:39;1.40;99.90
18444;DHT22;9350;53.176;8.194;2023-01-25T06:43:06;1.40;99.90
18444;DHT22;9350;53.176;8.194;2023-01-25T06:45:33;1.40;99.90
18444;DHT22;9350;53.176;8.194;2023-01-25T06:47:59;1.40;99.90
18444;DHT22;9350;53.176;8.194;2023-01-25T06:50:26;1.40;99.90
18444;DHT22;9350;53.176;8.194;2023-01-25T06:52:54;1.40;99.90
18444;DHT22;9350;53.176;8.194;2023-01-25T06:55:23;1.40;99.90
18444;DHT22;9350;53.176;8.194;2023-01-25T06:57:50;1.40;99.90
18444;DHT22;9350;53.176;8.194;2023-01-25T07:00:17;1.50;99.90
18444;DHT22;9350;53.176;8.194;2023-01-25T07:02:44;1.40;99.90
18444;DHT22;9350;53.176;8.194;2023-01-25T07:05:11;1.50;99.90
18444;DHT22;9350;53.176;8.194;2023-01-25T07:07:38;1.40;99.90
18444;DHT22;9350;53.176;8.194;2023-01-25T07:10:05;1.40;99.90
18444;DHT22;9350;53.176;8.194;2023-01-25T07:12:33;1.50;99.90
18444;DHT22;9350;53.176;8.194;2023-01-25T07:15:01;1.40;99.90
18444;DHT22;9350;53.176;8.194;2023-01-25T07:17:28;1.50;99.90
18444;DHT22;9350;53.176;8.194;2023-01-25T07:19:55;1.30;99.90
18444;DHT22;9350;53.176;8.194;2023-01-25T07:22:21;1.30;99.90
18444;DHT22;9350;53.176;8.194;2023-01-25T07:24:49;1.40;99.90
18444;DHT22;9350;53.176;8.194;2023-01-25T07:27:17;1.40;99.90
18444;DHT22;9350;53.176;8.194;2023-01-25T07:29:45;1.40;99.90
18444;DHT22;9350;53.176;8.194;2023-01-25T07:32:12;1.40;99.90
18444;DHT22;9350;53.176;8.194;2023-01-25T07:34:39;1.30;99.90
18444;DHT22;9350;53.176;8.194;2023-01-25T07:37:06;1.20;99.90
18444;DHT22;9350;53.176;8.194;2023-01-25T07:39:33;1.20;99.90
18444;DHT22;9350;53.176;8.194;2023-01-25T07:42:01;1.10;99.90
18444;DHT22;9350;53.176;8.194;2023-01-25T07:44:28;1.20;99.90
18444;DHT22;9350;53.176;8.194;2023-01-25T07:46:56;1.20;99.90
18444;DHT22;9350;53.176;8.194;2023-01-25T07:49:22;1.20;99.90
18444;DHT22;9350;53.176;8.194;2023-01-25T07:51:49;1.20;99.90
18444;DHT22;9350;53.176;8.194;2023-01-25T07:54:16;1.10;99.90
18444;DHT22;9350;53.176;8.194;2023-01-25T07:56:43;1.20;99.90
18444;DHT22;9350;53.176;8.194;2023-01-25T07:59:09;1.20;99.90
18444;DHT22;9350;53.176;8.194;2023-01-25T08:01:37;1.30;99.90
18444;DHT22;9350;53.176;8.194;2023-01-25T08:04:07;1.30;99.90
18444;DHT22;9350;53.176;8.194;2023-01-25T08:06:36;1.30;99.90
18444;DHT22;9350;53.176;8.194;2023-01-25T08:09:06;1.30;99.90
18444;DHT22;9350;53.176;8.194;2023-01-25T08:11:33;1.20;99.90
18444;DHT22;9350;53.176;8.194;2023-01-25T08:14:00;1.20;99.90
18444;DHT22;9350;53.176;8.194;2023-01-25T08:16:28;1.30;99.90
18444;DHT22;9350;53.176;8.194;2023-01-25T08:18:57;1.30;99.90
18444;DHT22;9350;53.176;8.194;2023-01-25T08:21:26;1.30;99.90
18444;DHT22;9350;53.176;8.194;2023-01-25T08:23:55;1.30;99.90
18444;DHT22;9350;53.176;8.194;2023-01-25T08:26:22;1.40;99.90
18444;DHT22;9350;53.176;8.194;2023-01-25T08:28:49;1.30;99.90
18444;DHT22;9350;53.176;8.194;2023-01-25T08:31:19;1.30;99.90
18444;DHT22;9350;53.176;8.194;2023-01-25T08:33:47;1.90;99.90
18444;DHT22;9350;53.176;8.194;2023-01-25T08:36:14;1.30;99.90
18444;DHT22;9350;53.176;8.194;2023-01-25T08:38:44;1.30;99.90
18444;DHT22;9350;53.176;8.194;2023-01-25T08:41:13;1.30;99.90
18444;DHT22;9350;53.176;8.194;2023-01-25T08:43:41;1.30;99.90
18444;DHT22;9350;53.176;8.194;2023-01-25T08:46:08;1.30;99.90
18444;DHT22;9350;53.176;8.194;2023-01-25T08:48:36;1.30;99.90
18444;DHT22;9350;53.176;8.194;2023-01-25T08:51:03;1.30;99.90
18444;DHT22;9350;53.176;8.194;2023-01-25T08:53:31;1.40;99.90
18444;DHT22;9350;53.176;8.194;2023-01-25T08:56:03;1.40;99.90
18444;DHT22;9350;53.176;8.194;2023-01-25T08:58:30;1.10;99.90
18444;DHT22;9350;53.176;8.194;2023-01-25T09:01:00;1.30;99.90
18444;DHT22;9350;53.176;8.194;2023-01-25T09:03:28;1.30;99.90
18444;DHT22;9350;53.176;8.194;2023-01-25T09:05:55;1.30;99.90
18444;DHT22;9350;53.176;8.194;2023-01-25T09:08:22;1.30;99.90
18444;DHT22;9350;53.176;8.194;2023-01-25T09:10:49;1.20;99.90
18444;DHT22;9350;53.176;8.194;2023-01-25T09:13:17;1.20;99.90
18444;DHT22;9350;53.176;8.194;2023-01-25T09:15:44;1.30;99.90
18444;DHT22;9350;53.176;8.194;2023-01-25T09:18:11;1.30;99.90
18444;DHT22;9350;53.176;8.194;2023-01-25T09:20:39;1.30;99.90
18444;DHT22;9350;53.176;8.194;2023-01-25T09:23:06;1.40;99.90
18444;DHT22;9350;53.176;8.194;2023-01-25T09:25:32;1.30;99.90
18444;DHT22;9350;53.176;8.194;2023-01-25T09:28:00;1.30;99.90
18444;DHT22;9350;53.176;8.194;2023-01-25T09:30:37;1.30;99.90
18444;DHT22;9350;53.176;8.194;2023-01-25T09:33:04;1.30;99.90
18444;DHT22;9350;53.176;8.194;2023-01-25T09:35:31;1.30;99.90
18444;DHT22;9350;53.176;8.194;2023-01-25T09:38:00;1.30;99.90
18444;DHT22;9350;53.176;8.194;2023-01-25T09:40:31;1.30;99.90
18444;DHT22;9350;53.176;8.194;2023-01-25T09:43:00;1.30;99.90
18444;DHT22;9350;53.176;8.194;2023-01-25T09:45:31;1.30;99.90
18444;DHT22;9350;53.176;8.194;2023-01-25T09:48:12;1.30;99.90
18444;DHT22;9350;53.176;8.194;2023-01-25T09:50:56;1.30;99.90
18444;DHT22;9350;53.176;8.194;2023-01-25T09:53:30;1.40;99.90
18444;DHT22;9350;53.176;8.194;2023-01-25T09:56:01;1.30;99.90
18444;DHT22;9350;53.176;8.194;2023-01-25T09:58:32;1.30;99.90
18444;DHT22;9350;53.176;8.194;2023-01-25T10:01:11;1.30;99.90
18444;DHT22;9350;53.176;8.194;2023-01-25T10:03:47;1.20;99.90
18444;DHT22;9350;53.176;8.194;2023-01-25T10:06:16;1.30;99.90
18444;DHT22;9350;53.176;8.194;2023-01-25T10:08:48;1.20;99.90
18444;DHT22;9350;53.176;8.194;2023-01-25T10:11:21;1.20;99.90
18444;DHT22;9350;53.176;8.194;2023-01-25T10:13:48;1.20;99.90
18444;DHT22;9350;53.176;8.194;2023-01-25T10:16:20;1.10;99.90
18444;DHT22;9350;53.176;8.194;2023-01-25T10:18:55;1.20;99.90
18444;DHT22;9350;53.176;8.194;2023-01-25T10:21:28;1.20;99.90
18444;DHT22;9350;53.176;8.194;2023-01-25T10:24:23;1.20;99.90
18444;DHT22;9350;53.176;8.194;2023-01-25T10:26:56;1.20;99.90
18444;DHT22;9350;53.176;8.194;2023-01-25T10:29:26;1.20;99.90
18444;DHT22;9350;53.176;8.194;2023-01-25T10:31:56;1.30;99.90
18444;DHT22;9350;53.176;8.194;2023-01-25T10:34:31;1.30;99.90
18444;DHT22;9350;53.176;8.194;2023-01-25T10:37:02;1.20;99.90
18444;DHT22;9350;53.176;8.194;2023-01-25T10:39:31;1.10;99.90
18444;DHT22;9350;53.176;8.194;2023-01-25T10:42:03;1.20;99.90
18444;DHT22;9350;53.176;8.194;2023-01-25T10:44:33;1.20;99.90
18444;DHT22;9350;53.176;8.194;2023-01-25T10:47:04;1.20;99.90
18444;DHT22;9350;53.176;8.194;2023-01-25T10:49:39;1.10;99.90
18444;DHT22;9350;53.176;8.194;2023-01-25T10:52:15;1.20;99.90
18444;DHT22;9350;53.176;8.194;2023-01-25T10:54:42;1.20;99.90
18444;DHT22;9350;53.176;8.194;2023-01-25T10:57:14;1.20;99.90
18444;DHT22;9350;53.176;8.194;2023-01-25T10:59:45;1.20;99.90
18444;DHT22;9350;53.176;8.194;2023-01-25T11:02:38;1.10;99.90
18444;DHT22;9350;53.176;8.194;2023-01-25T11:05:26;1.10;99.90
18444;DHT22;9350;53.176;8.194;2023-01-25T11:07:53;1.10;99.90
18444;DHT22;9350;53.176;8.194;2023-01-25T11:10:28;1.70;99.90
18444;DHT22;9350;53.176;8.194;2023-01-25T11:13:18;1.10;99.90
18444;DHT22;9350;53.176;8.194;2023-01-25T11:15:46;1.20;99.90
18444;DHT22;9350;53.176;8.194;2023-01-25T11:18:18;1.10;99.90
18444;DHT22;9350;53.176;8.194;2023-01-25T11:20:47;1.20;99.90
18444;DHT22;9350;53.176;8.194;2023-01-25T11:23:22;1.20;99.90
18444;DHT22;9350;53.176;8.194;2023-01-25T11:25:50;1.20;99.90
18444;DHT22;9350;53.176;8.194;2023-01-25T11:28:19;1.10;99.90
18444;DHT22;9350;53.176;8.194;2023-01-25T11:30:48;1.50;99.90
18444;DHT22;9350;53.176;8.194;2023-01-25T11:33:17;1.10;99.90
18444;DHT22;9350;53.176;8.194;2023-01-25T11:36:04;1.20;99.90
18444;DHT22;9350;53.176;8.194;2023-01-25T11:38:34;1.20;99.90
18444;DHT22;9350;53.176;8.194;2023-01-25T11:41:09;1.20;99.90
18444;DHT22;9350;53.176;8.194;2023-01-25T11:43:53;1.20;99.90
18444;DHT22;9350;53.176;8.194;2023-01-25T11:46:28;1.20;99.90
18444;DHT22;9350;53.176;8.194;2023-01-25T11:49:14;1.20;99.90
18444;DHT22;9350;53.176;8.194;2023-01-25T11:51:51;1.20;99.90
18444;DHT22;9350;53.176;8.194;2023-01-25T11:54:44;1.20;99.90
18444;DHT22;9350;53.176;8.194;2023-01-25T11:57:28;1.20;99.90
18444;DHT22;9350;53.176;8.194;2023-01-25T12:00:08;1.20;99.90
18444;DHT22;9350;53.176;8.194;2023-01-25T12:03:08;1.20;99.90
18444;DHT22;9350;53.176;8.194;2023-01-25T12:05:47;1.20;99.90
18444;DHT22;9350;53.176;8.194;2023-01-25T12:11:10;1.30;99.90
18444;DHT22;9350;53.176;8.194;2023-01-25T12:13:46;1.30;99.90
18444;DHT22;9350;53.176;8.194;2023-01-25T12:16:40;1.20;99.90
18444;DHT22;9350;53.176;8.194;2023-01-25T12:19:24;1.20;99.90
18444;DHT22;9350;53.176;8.194;2023-01-25T12:22:10;1.20;99.90
18444;DHT22;9350;53.176;8.194;2023-01-25T12:24:46;1.20;99.90
18444;DHT22;9350;53.176;8.194;2023-01-25T12:27:26;1.20;99.90
18444;DHT22;9350;53.176;8.194;2023-01-25T12:30:00;1.20;99.90
18444;DHT22;9350;53.176;8.194;2023-01-25T12:32:32;1.10;99.90
18444;DHT22;9350;53.176;8.194;2023-01-25T12:35:16;1.30;99.90
18444;DHT22;9350;53.176;8.194;2023-01-25T12:37:48;1.20;99.90
18444;DHT22;9350;53.176;8.194;2023-01-25T12:40:20;1.10;99.90
18444;DHT22;9350;53.176;8.194;2023-01-25T12:42:52;1.10;99.90
18444;DHT22;9350;53.176;8.194;2023-01-25T12:45:23;1.00;99.90
18444;DHT22;9350;53.176;8.194;2023-01-25T12:47:55;1.00;99.90
18444;DHT22;9350;53.176;8.194;2023-01-25T12:50:27;1.00;99.90
18444;DHT22;9350;53.176;8.194;2023-01-25T12:53:01;1.10;99.90
18444;DHT22;9350;53.176;8.194;2023-01-25T12:55:32;1.20;99.90
18444;DHT22;9350;53.176;8.194;2023-01-25T12:58:03;1.10;99.90
18444;DHT22;9350;53.176;8.194;2023-01-25T13:00:35;1.10;99.90
18444;DHT22;9350;53.176;8.194;2023-01-25T13:03:17;1.10;99.90
18444;DHT22;9350;53.176;8.194;2023-01-25T13:05:52;1.10;99.90
18444;DHT22;9350;53.176;8.194;2023-01-25T13:08:30;1.10;99.90
18444;DHT22;9350;53.176;8.194;2023-01-25T13:11:06;1.10;99.90
18444;DHT22;9350;53.176;8.194;2023-01-25T13:13:34;1.10;99.90
18444;DHT22;9350;53.176;8.194;2023-01-25T13:16:35;1.20;99.90
18444;DHT22;9350;53.176;8.194;2023-01-25T13:19:03;1.00;99.90
18444;DHT22;9350;53.176;8.194;2023-01-25T13:21:41;1.00;99.90
18444;DHT22;9350;53.176;8.194;2023-01-25T13:24:18;1.00;99.90
18444;DHT22;9350;53.176;8.194;2023-01-25T13:27:02;1.00;99.90
18444;DHT22;9350;53.176;8.194;2023-01-25T13:29:53;1.10;99.90
18444;DHT22;9350;53.176;8.194;2023-01-25T13:35:42;1.00;99.90
18444;DHT22;9350;53.176;8.194;2023-01-25T13:38:31;1.00;99.90
18444;DHT22;9350;53.176;8.194;2023-01-25T13:41:07;1.00;99.90
18444;DHT22;9350;53.176;8.194;2023-01-25T13:43:39;1.00;99.90
18444;DHT22;9350;53.176;8.194;2023-01-25T13:46:08;0.90;99.90
18444;DHT22;9350;53.176;8.194;2023-01-25T13:48:45;0.90;99.90
18444;DHT22;9350;53.176;8.194;2023-01-25T13:51:13;0.90;99.90
18444;DHT22;9350;53.176;8.194;2023-01-25T13:53:54;1.00;99.90
18444;DHT22;9350;53.176;8.194;2023-01-25T13:56:29;0.90;99.90
18444;DHT22;9350;53.176;8.194;2023-01-25T13:58:59;0.90;99.90
18444;DHT22;9350;53.176;8.194;2023-01-25T14:01:27;0.90;99.90
18444;DHT22;9350;53.176;8.194;2023-01-25T14:03:56;0.90;99.90
18444;DHT22;9350;53.176;8.194;2023-01-25T14:06:27;0.90;99.90
18444;DHT22;9350;53.176;8.194;2023-01-25T14:08:58;0.90;99.90
18444;DHT22;9350;53.176;8.194;2023-01-25T14:11:28;0.90;99.90
18444;DHT22;9350;53.176;8.194;2023-01-25T14:13:59;0.90;99.90
18444;DHT22;9350;53.176;8.194;2023-01-25T14:16:27;1.00;99.90
18444;DHT22;9350;53.176;8.194;2023-01-25T14:18:56;0.90;99.90
18444;DHT22;9350;53.176;8.194;2023-01-25T14:21:26;0.90;99.90
18444;DHT22;9350;53.176;8.194;2023-01-25T14:24:03;0.90;99.90
18444;DHT22;9350;53.176;8.194;2023-01-25T14:26:34;1.00;99.90
18444;DHT22;9350;53.176;8.194;2023-01-25T14:29:16;0.90;99.90
18444;DHT22;9350;53.176;8.194;2023-01-25T14:31:47;1.10;99.90
18444;DHT22;9350;53.176;8.194;2023-01-25T14:34:17;1.00;99.90
18444;DHT22;9350;53.176;8.194;2023-01-25T14:36:44;1.00;99.90
18444;DHT22;9350;53.176;8.194;2023-01-25T14:39:23;1.00;99.90
18444;DHT22;9350;53.176;8.194;2023-01-25T14:41:50;1.00;99.90
18444;DHT22;9350;53.176;8.194;2023-01-25T14:44:20;1.10;99.90
18444;DHT22;9350;53.176;8.194;2023-01-25T14:46:47;1.10;99.90
18444;DHT22;9350;53.176;8.194;2023-01-25T14:49:18;1.10;99.90
18444;DHT22;9350;53.176;8.194;2023-01-25T14:51:53;1.10;99.90
18444;DHT22;9350;53.176;8.194;2023-01-25T14:54:22;1.10;99.90
18444;DHT22;9350;53.176;8.194;2023-01-25T14:56:51;1.00;99.90
18444;DHT22;9350;53.176;8.194;2023-01-25T14:59:27;1.00;99.90
18444;DHT22;9350;53.176;8.194;2023-01-25T15:01:56;0.90;99.90
18444;DHT22;9350;53.176;8.194;2023-01-25T15:04:23;0.90;99.90
18444;DHT22;9350;53.176;8.194;2023-01-25T15:06:52;1.00;99.90
18444;DHT22;9350;53.176;8.194;2023-01-25T15:09:36;1.00;99.90
18444;DHT22;9350;53.176;8.194;2023-01-25T15:12:25;1.00;99.90
18444;DHT22;9350;53.176;8.194;2023-01-25T15:14:55;1.00;99.90
18444;DHT22;9350;53.176;8.194;2023-01-25T15:17:35;1.00;99.90
18444;DHT22;9350;53.176;8.194;2023-01-25T15:20:02;2.10;99.90
18444;DHT22;9350;53.176;8.194;2023-01-25T15:22:29;0.90;99.90
18444;DHT22;9350;53.176;8.194;2023-01-25T15:24:56;0.90;99.90
18444;DHT22;9350;53.176;8.194;2023-01-25T15:27:23;0.90;99.90
18444;DHT22;9350;53.176;8.194;2023-01-25T15:29:50;0.90;99.90
18444;DHT22;9350;53.176;8.194;2023-01-25T15:32:19;0.80;99.90
18444;DHT22;9350;53.176;8.194;2023-01-25T15:34:47;0.90;99.90
18444;DHT22;9350;53.176;8.194;2023-01-25T15:37:14;0.90;99.90
18444;DHT22;9350;53.176;8.194;2023-01-25T15:39:41;0.90;99.90
18444;DHT22;9350;53.176;8.194;2023-01-25T15:42:08;0.90;99.90
18444;DHT22;9350;53.176;8.194;2023-01-25T15:44:35;0.90;99.90
18444;DHT22;9350;53.176;8.194;2023-01-25T15:47:02;0.90;99.90
18444;DHT22;9350;53.176;8.194;2023-01-25T15:49:30;0.90;99.90
18444;DHT22;9350;53.176;8.194;2023-01-25T15:51:57;0.90;99.90
18444;DHT22;9350;53.176;8.194;2023-01-25T15:54:24;0.90;99.90
18444;DHT22;9350;53.176;8.194;2023-01-25T15:56:54;0.90;99.90
18444;DHT22;9350;53.176;8.194;2023-01-25T15:59:21;1.00;99.90
18444;DHT22;9350;53.176;8.194;2023-01-25T16:01:48;1.00;99.90
18444;DHT22;9350;53.176;8.194;2023-01-25T16:04:15;1.10;99.90
18444;DHT22;9350;53.176;8.194;2023-01-25T16:06:44;0.90;99.90
18444;DHT22;9350;53.176;8.194;2023-01-25T16:09:15;0.80;99.90
18444;DHT22;9350;53.176;8.194;2023-01-25T16:11:43;0.90;99.90
18444;DHT22;9350;53.176;8.194;2023-01-25T16:14:10;1.00;99.90
18444;DHT22;9350;53.176;8.194;2023-01-25T16:16:39;0.90;99.90
18444;DHT22;9350;53.176;8.194;2023-01-25T16:19:08;0.90;99.90
18444;DHT22;9350;53.176;8.194;2023-01-25T16:21:37;1.60;99.90
18444;DHT22;9350;53.176;8.194;2023-01-25T16:24:06;0.80;99.90
18444;DHT22;9350;53.176;8.194;2023-01-25T16:26:39;0.80;99.90